West Bangor, New York
Current Conditions -  °F | °C
As of 8:53 AM on Tuesday 27 Jan 2015 (Local Time) from KMSS Reporting Station
Clear Clear  
Wind Chill: -12°   Ceiling: Unl
Heat Index:   Visibility: 10mi
Dew Point: -4°   Wind: 16mph
Humidity: 63%   Direction: 50°NE
Pressure: 30.1"   Gusts: 28mph
Location:  44.7973°N, 74.4173°W
Report Text: KMSS 271353Z AUTO 05014G24KT 10SM CLR M14/M20 A3010 RMK AO2 PK WND 04027/1333 SLP204 T11441200
Loading
Personal Weather Stations






























Interactive Weather Map New forecast layout! Learn more

10-Day Weather Forecast

Advertisements
Track Severe Weather on mobile